sensor_id;sensor_type;location;lat;lon;timestamp;P1;durP1;ratioP1;P2;durP2;ratioP2
22955;SDS011;40888;48.148;11.526;2023-07-13T00:02:16;5.65;;;5.13;;
22955;SDS011;40888;48.148;11.526;2023-07-13T00:04:43;8.02;;;6.70;;
22955;SDS011;40888;48.148;11.526;2023-07-13T00:07:08;5.82;;;5.30;;
22955;SDS011;40888;48.148;11.526;2023-07-13T00:09:34;6.43;;;5.65;;
22955;SDS011;40888;48.148;11.526;2023-07-13T00:12:00;7.05;;;5.75;;
22955;SDS011;40888;48.148;11.526;2023-07-13T00:14:28;7.38;;;5.85;;
22955;SDS011;40888;48.148;11.526;2023-07-13T00:16:55;7.80;;;5.68;;
22955;SDS011;40888;48.148;11.526;2023-07-13T00:19:21;7.95;;;5.43;;
22955;SDS011;40888;48.148;11.526;2023-07-13T00:21:47;4.75;;;4.03;;
22955;SDS011;40888;48.148;11.526;2023-07-13T00:24:14;4.63;;;4.07;;
22955;SDS011;40888;48.148;11.526;2023-07-13T00:26:43;5.47;;;4.70;;
22955;SDS011;40888;48.148;11.526;2023-07-13T00:29:12;6.78;;;4.57;;
22955;SDS011;40888;48.148;11.526;2023-07-13T00:31:38;5.05;;;4.32;;
22955;SDS011;40888;48.148;11.526;2023-07-13T00:34:04;7.45;;;4.10;;
22955;SDS011;40888;48.148;11.526;2023-07-13T00:36:29;5.90;;;4.40;;
22955;SDS011;40888;48.148;11.526;2023-07-13T00:38:56;4.22;;;3.80;;
22955;SDS011;40888;48.148;11.526;2023-07-13T00:41:21;5.40;;;4.22;;
22955;SDS011;40888;48.148;11.526;2023-07-13T00:43:47;4.57;;;3.53;;
22955;SDS011;40888;48.148;11.526;2023-07-13T00:46:15;4.85;;;4.03;;
22955;SDS011;40888;48.148;11.526;2023-07-13T00:48:44;4.50;;;4.10;;
22955;SDS011;40888;48.148;11.526;2023-07-13T00:51:12;3.85;;;3.50;;
22955;SDS011;40888;48.148;11.526;2023-07-13T00:53:40;3.92;;;3.40;;
22955;SDS011;40888;48.148;11.526;2023-07-13T00:56:06;4.90;;;3.53;;
22955;SDS011;40888;48.148;11.526;2023-07-13T00:58:33;3.63;;;3.20;;
22955;SDS011;40888;48.148;11.526;2023-07-13T01:00:59;3.35;;;3.05;;
22955;SDS011;40888;48.148;11.526;2023-07-13T01:03:25;4.93;;;3.70;;
22955;SDS011;40888;48.148;11.526;2023-07-13T01:05:51;5.40;;;3.17;;
22955;SDS011;40888;48.148;11.526;2023-07-13T01:08:19;4.65;;;3.28;;
22955;SDS011;40888;48.148;11.526;2023-07-13T01:10:55;4.47;;;3.13;;
22955;SDS011;40888;48.148;11.526;2023-07-13T01:13:22;4.32;;;3.42;;
22955;SDS011;40888;48.148;11.526;2023-07-13T01:15:49;5.63;;;3.20;;
22955;SDS011;40888;48.148;11.526;2023-07-13T01:18:18;5.38;;;4.28;;
22955;SDS011;40888;48.148;11.526;2023-07-13T01:21:03;6.03;;;3.80;;
22955;SDS011;40888;48.148;11.526;2023-07-13T01:23:30;6.10;;;4.00;;
22955;SDS011;40888;48.148;11.526;2023-07-13T01:25:57;4.40;;;3.70;;
22955;SDS011;40888;48.148;11.526;2023-07-13T01:28:24;4.40;;;4.00;;
22955;SDS011;40888;48.148;11.526;2023-07-13T01:30:52;4.45;;;3.78;;
22955;SDS011;40888;48.148;11.526;2023-07-13T01:33:19;4.47;;;3.80;;
22955;SDS011;40888;48.148;11.526;2023-07-13T01:35:45;4.93;;;4.20;;
22955;SDS011;40888;48.148;11.526;2023-07-13T01:38:14;6.07;;;4.72;;
22955;SDS011;40888;48.148;11.526;2023-07-13T01:40:41;4.53;;;3.45;;
22955;SDS011;40888;48.148;11.526;2023-07-13T01:43:07;3.85;;;3.53;;
22955;SDS011;40888;48.148;11.526;2023-07-13T01:45:33;6.22;;;4.50;;
22955;SDS011;40888;48.148;11.526;2023-07-13T01:47:59;5.05;;;4.15;;
22955;SDS011;40888;48.148;11.526;2023-07-13T01:50:25;5.95;;;4.63;;
22955;SDS011;40888;48.148;11.526;2023-07-13T01:52:51;5.07;;;4.57;;
22955;SDS011;40888;48.148;11.526;2023-07-13T01:55:17;6.15;;;4.78;;
22955;SDS011;40888;48.148;11.526;2023-07-13T01:57:42;7.28;;;5.60;;
22955;SDS011;40888;48.148;11.526;2023-07-13T02:00:09;5.95;;;5.22;;
22955;SDS011;40888;48.148;11.526;2023-07-13T02:02:36;7.45;;;5.85;;
22955;SDS011;40888;48.148;11.526;2023-07-13T02:05:02;6.63;;;5.97;;
22955;SDS011;40888;48.148;11.526;2023-07-13T02:07:27;9.38;;;5.60;;
22955;SDS011;40888;48.148;11.526;2023-07-13T02:09:53;8.32;;;6.15;;
22955;SDS011;40888;48.148;11.526;2023-07-13T02:12:19;6.45;;;5.45;;
22955;SDS011;40888;48.148;11.526;2023-07-13T02:14:45;6.75;;;6.05;;
22955;SDS011;40888;48.148;11.526;2023-07-13T02:17:11;8.73;;;6.22;;
22955;SDS011;40888;48.148;11.526;2023-07-13T02:19:37;10.05;;;6.88;;
22955;SDS011;40888;48.148;11.526;2023-07-13T02:22:03;8.07;;;6.25;;
22955;SDS011;40888;48.148;11.526;2023-07-13T02:24:29;10.00;;;7.10;;
22955;SDS011;40888;48.148;11.526;2023-07-13T02:26:54;7.80;;;6.70;;
22955;SDS011;40888;48.148;11.526;2023-07-13T02:29:20;8.23;;;6.10;;
22955;SDS011;40888;48.148;11.526;2023-07-13T02:31:46;12.38;;;7.18;;
22955;SDS011;40888;48.148;11.526;2023-07-13T02:34:12;9.35;;;6.53;;
22955;SDS011;40888;48.148;11.526;2023-07-13T02:36:37;9.93;;;7.07;;
22955;SDS011;40888;48.148;11.526;2023-07-13T02:39:04;9.63;;;7.65;;
22955;SDS011;40888;48.148;11.526;2023-07-13T02:41:31;8.60;;;6.55;;
22955;SDS011;40888;48.148;11.526;2023-07-13T02:43:57;9.10;;;7.15;;
22955;SDS011;40888;48.148;11.526;2023-07-13T02:46:32;8.40;;;6.55;;
22955;SDS011;40888;48.148;11.526;2023-07-13T02:48:59;11.05;;;7.07;;
22955;SDS011;40888;48.148;11.526;2023-07-13T02:51:25;11.38;;;8.30;;
22955;SDS011;40888;48.148;11.526;2023-07-13T02:53:51;9.90;;;6.40;;
22955;SDS011;40888;48.148;11.526;2023-07-13T02:56:18;7.43;;;6.72;;
22955;SDS011;40888;48.148;11.526;2023-07-13T02:58:47;8.32;;;5.63;;
22955;SDS011;40888;48.148;11.526;2023-07-13T03:01:13;8.80;;;6.43;;
22955;SDS011;40888;48.148;11.526;2023-07-13T03:03:44;9.05;;;8.15;;
22955;SDS011;40888;48.148;11.526;2023-07-13T03:06:11;11.52;;;8.23;;
22955;SDS011;40888;48.148;11.526;2023-07-13T03:08:38;9.98;;;8.38;;
22955;SDS011;40888;48.148;11.526;2023-07-13T03:11:08;14.10;;;9.93;;
22955;SDS011;40888;48.148;11.526;2023-07-13T03:13:37;13.53;;;10.73;;
22955;SDS011;40888;48.148;11.526;2023-07-13T03:16:03;11.40;;;9.67;;
22955;SDS011;40888;48.148;11.526;2023-07-13T03:18:29;17.25;;;11.48;;
22955;SDS011;40888;48.148;11.526;2023-07-13T03:20:55;15.70;;;12.47;;
22955;SDS011;40888;48.148;11.526;2023-07-13T03:23:21;12.43;;;9.27;;
22955;SDS011;40888;48.148;11.526;2023-07-13T03:25:48;12.77;;;10.27;;
22955;SDS011;40888;48.148;11.526;2023-07-13T03:28:14;13.57;;;10.73;;
22955;SDS011;40888;48.148;11.526;2023-07-13T03:30:40;14.50;;;11.67;;
22955;SDS011;40888;48.148;11.526;2023-07-13T03:33:06;22.13;;;15.33;;
22955;SDS011;40888;48.148;11.526;2023-07-13T03:35:35;15.53;;;11.80;;
22955;SDS011;40888;48.148;11.526;2023-07-13T03:38:00;12.10;;;10.80;;
22955;SDS011;40888;48.148;11.526;2023-07-13T03:40:27;16.13;;;10.97;;
22955;SDS011;40888;48.148;11.526;2023-07-13T03:42:53;18.03;;;14.10;;
22955;SDS011;40888;48.148;11.526;2023-07-13T03:45:19;19.13;;;14.10;;
22955;SDS011;40888;48.148;11.526;2023-07-13T03:47:45;15.47;;;12.33;;
22955;SDS011;40888;48.148;11.526;2023-07-13T03:50:11;9.33;;;8.23;;
22955;SDS011;40888;48.148;11.526;2023-07-13T03:52:37;8.33;;;7.40;;
22955;SDS011;40888;48.148;11.526;2023-07-13T03:55:02;10.20;;;7.60;;
22955;SDS011;40888;48.148;11.526;2023-07-13T03:57:28;10.70;;;7.73;;
22955;SDS011;40888;48.148;11.526;2023-07-13T03:59:54;11.67;;;8.33;;
22955;SDS011;40888;48.148;11.526;2023-07-13T04:02:20;8.27;;;7.37;;
22955;SDS011;40888;48.148;11.526;2023-07-13T04:04:46;7.23;;;5.73;;
22955;SDS011;40888;48.148;11.526;2023-07-13T04:07:12;6.63;;;4.80;;
22955;SDS011;40888;48.148;11.526;2023-07-13T04:09:37;6.87;;;5.37;;
22955;SDS011;40888;48.148;11.526;2023-07-13T04:12:03;6.57;;;4.40;;
22955;SDS011;40888;48.148;11.526;2023-07-13T04:14:30;9.27;;;6.33;;
22955;SDS011;40888;48.148;11.526;2023-07-13T04:16:55;7.57;;;5.13;;
22955;SDS011;40888;48.148;11.526;2023-07-13T04:19:21;7.13;;;5.70;;
22955;SDS011;40888;48.148;11.526;2023-07-13T04:21:48;11.83;;;9.67;;
22955;SDS011;40888;48.148;11.526;2023-07-13T04:24:14;14.10;;;7.30;;
22955;SDS011;40888;48.148;11.526;2023-07-13T04:26:40;11.03;;;6.80;;
22955;SDS011;40888;48.148;11.526;2023-07-13T04:29:06;7.97;;;7.13;;
22955;SDS011;40888;48.148;11.526;2023-07-13T04:31:32;9.63;;;7.10;;
22955;SDS011;40888;48.148;11.526;2023-07-13T04:33:58;12.87;;;7.57;;
22955;SDS011;40888;48.148;11.526;2023-07-13T04:36:24;13.57;;;7.53;;
22955;SDS011;40888;48.148;11.526;2023-07-13T04:38:53;9.43;;;7.50;;
22955;SDS011;40888;48.148;11.526;2023-07-13T04:41:20;8.47;;;5.83;;
22955;SDS011;40888;48.148;11.526;2023-07-13T04:43:47;8.43;;;5.27;;
22955;SDS011;40888;48.148;11.526;2023-07-13T04:46:14;13.20;;;5.77;;
22955;SDS011;40888;48.148;11.526;2023-07-13T04:48:43;10.18;;;7.47;;
22955;SDS011;40888;48.148;11.526;2023-07-13T04:51:09;9.00;;;6.00;;
22955;SDS011;40888;48.148;11.526;2023-07-13T04:53:35;6.33;;;5.40;;
22955;SDS011;40888;48.148;11.526;2023-07-13T04:56:01;8.00;;;5.60;;
22955;SDS011;40888;48.148;11.526;2023-07-13T04:58:28;6.37;;;4.77;;
22955;SDS011;40888;48.148;11.526;2023-07-13T05:00:59;6.23;;;4.93;;
22955;SDS011;40888;48.148;11.526;2023-07-13T05:03:25;10.17;;;5.80;;
22955;SDS011;40888;48.148;11.526;2023-07-13T05:05:55;5.50;;;4.90;;
22955;SDS011;40888;48.148;11.526;2023-07-13T05:08:21;5.33;;;4.83;;
22955;SDS011;40888;48.148;11.526;2023-07-13T05:10:47;6.33;;;5.10;;
22955;SDS011;40888;48.148;11.526;2023-07-13T05:13:13;7.53;;;5.20;;
22955;SDS011;40888;48.148;11.526;2023-07-13T05:15:38;5.67;;;4.97;;
22955;SDS011;40888;48.148;11.526;2023-07-13T05:18:04;6.60;;;5.03;;
22955;SDS011;40888;48.148;11.526;2023-07-13T05:20:30;8.70;;;5.72;;
22955;SDS011;40888;48.148;11.526;2023-07-13T05:22:56;9.67;;;5.80;;
22955;SDS011;40888;48.148;11.526;2023-07-13T05:25:21;9.00;;;6.07;;
22955;SDS011;40888;48.148;11.526;2023-07-13T05:27:47;7.90;;;5.47;;
22955;SDS011;40888;48.148;11.526;2023-07-13T05:30:13;10.90;;;6.10;;
22955;SDS011;40888;48.148;11.526;2023-07-13T05:32:39;8.13;;;6.28;;
22955;SDS011;40888;48.148;11.526;2023-07-13T05:35:06;10.53;;;6.10;;
22955;SDS011;40888;48.148;11.526;2023-07-13T05:37:32;8.47;;;5.27;;
22955;SDS011;40888;48.148;11.526;2023-07-13T05:39:57;9.33;;;5.93;;
22955;SDS011;40888;48.148;11.526;2023-07-13T05:42:24;6.43;;;5.50;;
22955;SDS011;40888;48.148;11.526;2023-07-13T05:44:49;8.05;;;5.65;;
22955;SDS011;40888;48.148;11.526;2023-07-13T05:47:15;6.70;;;5.40;;
22955;SDS011;40888;48.148;11.526;2023-07-13T05:49:41;6.63;;;5.43;;
22955;SDS011;40888;48.148;11.526;2023-07-13T05:52:07;8.50;;;6.07;;
22955;SDS011;40888;48.148;11.526;2023-07-13T05:54:32;9.32;;;7.63;;
22955;SDS011;40888;48.148;11.526;2023-07-13T05:56:58;13.57;;;9.82;;
22955;SDS011;40888;48.148;11.526;2023-07-13T05:59:24;6.38;;;5.40;;
22955;SDS011;40888;48.148;11.526;2023-07-13T06:01:50;8.98;;;5.53;;
22955;SDS011;40888;48.148;11.526;2023-07-13T06:04:17;7.38;;;5.90;;
22955;SDS011;40888;48.148;11.526;2023-07-13T06:06:44;8.13;;;5.30;;
22955;SDS011;40888;48.148;11.526;2023-07-13T06:09:10;6.45;;;4.72;;
22955;SDS011;40888;48.148;11.526;2023-07-13T06:11:36;7.88;;;5.65;;
22955;SDS011;40888;48.148;11.526;2023-07-13T06:14:01;7.18;;;5.22;;
22955;SDS011;40888;48.148;11.526;2023-07-13T06:16:29;8.75;;;5.40;;
22955;SDS011;40888;48.148;11.526;2023-07-13T06:18:54;9.60;;;5.55;;
22955;SDS011;40888;48.148;11.526;2023-07-13T06:21:21;7.53;;;5.10;;
22955;SDS011;40888;48.148;11.526;2023-07-13T06:23:48;9.95;;;4.93;;
22955;SDS011;40888;48.148;11.526;2023-07-13T06:26:16;7.97;;;4.95;;
22955;SDS011;40888;48.148;11.526;2023-07-13T06:28:43;7.50;;;4.95;;
22955;SDS011;40888;48.148;11.526;2023-07-13T06:31:10;9.40;;;4.53;;
22955;SDS011;40888;48.148;11.526;2023-07-13T06:33:37;7.97;;;5.05;;
22955;SDS011;40888;48.148;11.526;2023-07-13T06:36:03;8.77;;;4.40;;
22955;SDS011;40888;48.148;11.526;2023-07-13T06:38:31;8.20;;;4.65;;
22955;SDS011;40888;48.148;11.526;2023-07-13T06:40:57;6.00;;;4.35;;
22955;SDS011;40888;48.148;11.526;2023-07-13T06:43:23;5.30;;;4.20;;
22955;SDS011;40888;48.148;11.526;2023-07-13T06:45:50;6.50;;;4.35;;
22955;SDS011;40888;48.148;11.526;2023-07-13T06:48:17;6.88;;;3.78;;
22955;SDS011;40888;48.148;11.526;2023-07-13T06:50:44;6.53;;;4.13;;
22955;SDS011;40888;48.148;11.526;2023-07-13T06:53:11;6.20;;;3.53;;
22955;SDS011;40888;48.148;11.526;2023-07-13T06:55:37;4.00;;;3.50;;
22955;SDS011;40888;48.148;11.526;2023-07-13T06:58:03;6.25;;;3.55;;
22955;SDS011;40888;48.148;11.526;2023-07-13T07:00:29;3.83;;;3.17;;
22955;SDS011;40888;48.148;11.526;2023-07-13T07:02:55;5.22;;;3.30;;
22955;SDS011;40888;48.148;11.526;2023-07-13T07:05:21;8.13;;;3.75;;
22955;SDS011;40888;48.148;11.526;2023-07-13T07:07:50;3.50;;;3.03;;
22955;SDS011;40888;48.148;11.526;2023-07-13T07:10:17;6.20;;;3.45;;
22955;SDS011;40888;48.148;11.526;2023-07-13T07:12:43;6.40;;;4.05;;
22955;SDS011;40888;48.148;11.526;2023-07-13T07:15:09;6.95;;;4.35;;
22955;SDS011;40888;48.148;11.526;2023-07-13T07:17:35;5.80;;;4.20;;
22955;SDS011;40888;48.148;11.526;2023-07-13T07:20:01;7.65;;;4.25;;
22955;SDS011;40888;48.148;11.526;2023-07-13T07:22:28;4.03;;;3.22;;
22955;SDS011;40888;48.148;11.526;2023-07-13T07:24:55;5.30;;;3.88;;
22955;SDS011;40888;48.148;11.526;2023-07-13T07:27:22;8.75;;;3.58;;
22955;SDS011;40888;48.148;11.526;2023-07-13T07:29:48;5.10;;;3.30;;
22955;SDS011;40888;48.148;11.526;2023-07-13T07:32:14;4.45;;;3.85;;
22955;SDS011;40888;48.148;11.526;2023-07-13T07:34:40;6.78;;;4.03;;
22955;SDS011;40888;48.148;11.526;2023-07-13T07:37:06;4.20;;;3.60;;
22955;SDS011;40888;48.148;11.526;2023-07-13T07:39:32;7.60;;;3.75;;
22955;SDS011;40888;48.148;11.526;2023-07-13T07:41:57;11.63;;;3.53;;
22955;SDS011;40888;48.148;11.526;2023-07-13T07:44:23;4.78;;;3.80;;
22955;SDS011;40888;48.148;11.526;2023-07-13T07:46:49;5.72;;;3.70;;
22955;SDS011;40888;48.148;11.526;2023-07-13T07:49:15;4.85;;;3.97;;
22955;SDS011;40888;48.148;11.526;2023-07-13T07:51:41;8.82;;;3.63;;
22955;SDS011;40888;48.148;11.526;2023-07-13T07:54:06;7.38;;;3.95;;
22955;SDS011;40888;48.148;11.526;2023-07-13T07:56:32;10.77;;;3.95;;
22955;SDS011;40888;48.148;11.526;2023-07-13T07:58:58;7.03;;;3.60;;
22955;SDS011;40888;48.148;11.526;2023-07-13T08:01:24;4.50;;;3.22;;
22955;SDS011;40888;48.148;11.526;2023-07-13T08:03:50;4.05;;;3.60;;
22955;SDS011;40888;48.148;11.526;2023-07-13T08:06:15;6.03;;;4.03;;
22955;SDS011;40888;48.148;11.526;2023-07-13T08:08:41;5.40;;;3.25;;
22955;SDS011;40888;48.148;11.526;2023-07-13T08:11:08;4.82;;;3.22;;
22955;SDS011;40888;48.148;11.526;2023-07-13T08:13:34;7.05;;;2.85;;
22955;SDS011;40888;48.148;11.526;2023-07-13T08:16:00;3.53;;;3.17;;
22955;SDS011;40888;48.148;11.526;2023-07-13T08:18:29;3.42;;;3.13;;
22955;SDS011;40888;48.148;11.526;2023-07-13T08:20:55;4.55;;;3.08;;
22955;SDS011;40888;48.148;11.526;2023-07-13T08:23:22;6.38;;;3.50;;
22955;SDS011;40888;48.148;11.526;2023-07-13T08:25:51;5.25;;;3.65;;
22955;SDS011;40888;48.148;11.526;2023-07-13T08:28:19;6.57;;;3.47;;
22955;SDS011;40888;48.148;11.526;2023-07-13T08:30:46;3.45;;;2.95;;
22955;SDS011;40888;48.148;11.526;2023-07-13T08:33:21;3.60;;;2.78;;
22955;SDS011;40888;48.148;11.526;2023-07-13T08:35:50;5.82;;;2.92;;
22955;SDS011;40888;48.148;11.526;2023-07-13T08:38:16;7.45;;;3.10;;
22955;SDS011;40888;48.148;11.526;2023-07-13T08:40:43;3.72;;;2.78;;
22955;SDS011;40888;48.148;11.526;2023-07-13T08:43:14;8.38;;;3.42;;
22955;SDS011;40888;48.148;11.526;2023-07-13T08:45:46;4.75;;;3.00;;
22955;SDS011;40888;48.148;11.526;2023-07-13T08:48:18;5.70;;;2.90;;
22955;SDS011;40888;48.148;11.526;2023-07-13T08:53:36;7.68;;;2.72;;
22955;SDS011;40888;48.148;11.526;2023-07-13T08:56:05;5.80;;;3.28;;
22955;SDS011;40888;48.148;11.526;2023-07-13T08:58:36;4.53;;;2.65;;
22955;SDS011;40888;48.148;11.526;2023-07-13T09:01:08;4.47;;;2.92;;
22955;SDS011;40888;48.148;11.526;2023-07-13T09:03:51;6.53;;;2.92;;
22955;SDS011;40888;48.148;11.526;2023-07-13T09:06:27;5.43;;;2.28;;
22955;SDS011;40888;48.148;11.526;2023-07-13T09:09:02;2.92;;;2.25;;
22955;SDS011;40888;48.148;11.526;2023-07-13T09:12:17;4.38;;;2.80;;
22955;SDS011;40888;48.148;11.526;2023-07-13T09:14:48;6.47;;;3.03;;
22955;SDS011;40888;48.148;11.526;2023-07-13T09:20:22;6.30;;;2.85;;
22955;SDS011;40888;48.148;11.526;2023-07-13T09:22:52;4.50;;;2.42;;
22955;SDS011;40888;48.148;11.526;2023-07-13T09:28:02;3.30;;;2.38;;
22955;SDS011;40888;48.148;11.526;2023-07-13T09:33:25;2.55;;;2.05;;
22955;SDS011;40888;48.148;11.526;2023-07-13T09:35:54;4.05;;;2.13;;
22955;SDS011;40888;48.148;11.526;2023-07-13T09:38:24;2.88;;;2.05;;
22955;SDS011;40888;48.148;11.526;2023-07-13T09:40:57;2.55;;;2.20;;
22955;SDS011;40888;48.148;11.526;2023-07-13T09:43:29;2.90;;;2.15;;
22955;SDS011;40888;48.148;11.526;2023-07-13T09:45:55;5.55;;;2.58;;
22955;SDS011;40888;48.148;11.526;2023-07-13T09:48:21;4.22;;;2.28;;
22955;SDS011;40888;48.148;11.526;2023-07-13T09:50:47;2.30;;;2.10;;
22955;SDS011;40888;48.148;11.526;2023-07-13T09:53:17;3.70;;;2.33;;
22955;SDS011;40888;48.148;11.526;2023-07-13T09:55:46;2.80;;;2.00;;
22955;SDS011;40888;48.148;11.526;2023-07-13T09:58:14;3.47;;;2.08;;
22955;SDS011;40888;48.148;11.526;2023-07-13T10:01:00;3.53;;;2.17;;
22955;SDS011;40888;48.148;11.526;2023-07-13T10:03:31;4.70;;;2.15;;
22955;SDS011;40888;48.148;11.526;2023-07-13T10:06:16;3.17;;;1.95;;
22955;SDS011;40888;48.148;11.526;2023-07-13T10:08:44;3.53;;;1.80;;
22955;SDS011;40888;48.148;11.526;2023-07-13T10:11:17;2.55;;;2.20;;
22955;SDS011;40888;48.148;11.526;2023-07-13T10:16:20;2.70;;;1.98;;
22955;SDS011;40888;48.148;11.526;2023-07-13T10:18:51;6.03;;;2.22;;
22955;SDS011;40888;48.148;11.526;2023-07-13T10:21:22;2.80;;;1.80;;
22955;SDS011;40888;48.148;11.526;2023-07-13T10:24:13;4.47;;;2.20;;
22955;SDS011;40888;48.148;11.526;2023-07-13T10:26:55;5.65;;;2.65;;
22955;SDS011;40888;48.148;11.526;2023-07-13T10:29:29;3.67;;;1.92;;
22955;SDS011;40888;48.148;11.526;2023-07-13T10:32:01;6.53;;;1.77;;
22955;SDS011;40888;48.148;11.526;2023-07-13T10:34:27;5.97;;;2.60;;
22955;SDS011;40888;48.148;11.526;2023-07-13T10:36:53;4.00;;;2.22;;
22955;SDS011;40888;48.148;11.526;2023-07-13T10:39:20;4.13;;;1.90;;
22955;SDS011;40888;48.148;11.526;2023-07-13T10:41:59;3.85;;;2.00;;
22955;SDS011;40888;48.148;11.526;2023-07-13T10:44:30;5.70;;;2.40;;
22955;SDS011;40888;48.148;11.526;2023-07-13T10:46:58;4.97;;;2.13;;
22955;SDS011;40888;48.148;11.526;2023-07-13T10:49:31;3.05;;;2.05;;
22955;SDS011;40888;48.148;11.526;2023-07-13T10:52:00;5.43;;;2.45;;
22955;SDS011;40888;48.148;11.526;2023-07-13T10:59:38;5.43;;;2.05;;
22955;SDS011;40888;48.148;11.526;2023-07-13T11:02:10;5.05;;;2.10;;
22955;SDS011;40888;48.148;11.526;2023-07-13T11:04:44;3.78;;;2.40;;
22955;SDS011;40888;48.148;11.526;2023-07-13T11:07:30;2.80;;;2.22;;
22955;SDS011;40888;48.148;11.526;2023-07-13T11:10:03;4.20;;;2.45;;
22955;SDS011;40888;48.148;11.526;2023-07-13T11:15:43;1.88;;;1.60;;
22955;SDS011;40888;48.148;11.526;2023-07-13T11:18:20;3.88;;;2.20;;
22955;SDS011;40888;48.148;11.526;2023-07-13T11:20:48;3.85;;;1.88;;
22955;SDS011;40888;48.148;11.526;2023-07-13T11:25:44;2.58;;;1.75;;
22955;SDS011;40888;48.148;11.526;2023-07-13T11:30:37;2.35;;;2.15;;
22955;SDS011;40888;48.148;11.526;2023-07-13T11:33:13;2.33;;;1.60;;
22955;SDS011;40888;48.148;11.526;2023-07-13T11:38:36;2.50;;;1.90;;
22955;SDS011;40888;48.148;11.526;2023-07-13T11:43:39;2.45;;;2.10;;
22955;SDS011;40888;48.148;11.526;2023-07-13T11:46:14;6.13;;;2.13;;
22955;SDS011;40888;48.148;11.526;2023-07-13T11:48:44;5.85;;;2.22;;
22955;SDS011;40888;48.148;11.526;2023-07-13T11:51:15;4.30;;;2.15;;
22955;SDS011;40888;48.148;11.526;2023-07-13T11:53:46;3.42;;;1.80;;
22955;SDS011;40888;48.148;11.526;2023-07-13T11:56:14;3.03;;;1.95;;
22955;SDS011;40888;48.148;11.526;2023-07-13T11:58:39;2.30;;;1.52;;
22955;SDS011;40888;48.148;11.526;2023-07-13T12:01:10;5.10;;;2.20;;
22955;SDS011;40888;48.148;11.526;2023-07-13T12:03:45;4.30;;;2.15;;
22955;SDS011;40888;48.148;11.526;2023-07-13T12:06:21;5.82;;;2.10;;
22955;SDS011;40888;48.148;11.526;2023-07-13T12:08:47;5.53;;;2.10;;
22955;SDS011;40888;48.148;11.526;2023-07-13T12:11:16;4.88;;;1.92;;
22955;SDS011;40888;48.148;11.526;2023-07-13T12:13:44;5.63;;;2.20;;
22955;SDS011;40888;48.148;11.526;2023-07-13T12:16:11;2.40;;;2.10;;
22955;SDS011;40888;48.148;11.526;2023-07-13T12:18:58;3.78;;;1.88;;
22955;SDS011;40888;48.148;11.526;2023-07-13T12:21:33;5.80;;;2.35;;
22955;SDS011;40888;48.148;11.526;2023-07-13T12:24:04;5.13;;;2.00;;
22955;SDS011;40888;48.148;11.526;2023-07-13T12:26:36;5.00;;;2.17;;
22955;SDS011;40888;48.148;11.526;2023-07-13T12:29:04;5.13;;;2.05;;
22955;SDS011;40888;48.148;11.526;2023-07-13T12:31:33;3.70;;;2.13;;
22955;SDS011;40888;48.148;11.526;2023-07-13T12:34:06;4.15;;;2.10;;
22955;SDS011;40888;48.148;11.526;2023-07-13T12:36:37;7.15;;;2.28;;
22955;SDS011;40888;48.148;11.526;2023-07-13T12:39:16;4.00;;;2.45;;
22955;SDS011;40888;48.148;11.526;2023-07-13T12:41:43;2.88;;;2.00;;
22955;SDS011;40888;48.148;11.526;2023-07-13T12:44:14;3.95;;;1.88;;
22955;SDS011;40888;48.148;11.526;2023-07-13T12:49:39;2.78;;;2.05;;
22955;SDS011;40888;48.148;11.526;2023-07-13T12:52:13;4.68;;;2.13;;
22955;SDS011;40888;48.148;11.526;2023-07-13T12:54:55;2.63;;;2.17;;
22955;SDS011;40888;48.148;11.526;2023-07-13T12:57:23;1.90;;;1.70;;
22955;SDS011;40888;48.148;11.526;2023-07-13T12:59:51;3.97;;;1.58;;
22955;SDS011;40888;48.148;11.526;2023-07-13T13:02:29;2.88;;;1.90;;
22955;SDS011;40888;48.148;11.526;2023-07-13T13:04:57;2.42;;;1.70;;
22955;SDS011;40888;48.148;11.526;2023-07-13T13:07:24;6.25;;;2.25;;
22955;SDS011;40888;48.148;11.526;2023-07-13T13:09:50;3.97;;;1.95;;
22955;SDS011;40888;48.148;11.526;2023-07-13T13:12:18;2.88;;;2.20;;
22955;SDS011;40888;48.148;11.526;2023-07-13T13:14:44;2.65;;;1.55;;
22955;SDS011;40888;48.148;11.526;2023-07-13T13:17:29;2.85;;;1.83;;
22955;SDS011;40888;48.148;11.526;2023-07-13T13:19:56;4.75;;;1.30;;
22955;SDS011;40888;48.148;11.526;2023-07-13T13:22:22;3.78;;;1.80;;
22955;SDS011;40888;48.148;11.526;2023-07-13T13:24:48;3.40;;;1.65;;
22955;SDS011;40888;48.148;11.526;2023-07-13T13:27:15;3.63;;;1.40;;
22955;SDS011;40888;48.148;11.526;2023-07-13T13:29:49;4.30;;;1.52;;
22955;SDS011;40888;48.148;11.526;2023-07-13T13:32:16;2.25;;;1.50;;
22955;SDS011;40888;48.148;11.526;2023-07-13T13:34:43;2.88;;;1.50;;
22955;SDS011;40888;48.148;11.526;2023-07-13T13:37:15;2.13;;;1.60;;
22955;SDS011;40888;48.148;11.526;2023-07-13T13:39:46;2.25;;;1.63;;
22955;SDS011;40888;48.148;11.526;2023-07-13T13:42:12;2.33;;;1.80;;
22955;SDS011;40888;48.148;11.526;2023-07-13T13:44:39;4.00;;;2.15;;
22955;SDS011;40888;48.148;11.526;2023-07-13T13:47:39;2.63;;;1.67;;
22955;SDS011;40888;48.148;11.526;2023-07-13T13:49:59;3.65;;;1.55;;
22955;SDS011;40888;48.148;11.526;2023-07-13T13:52:25;2.35;;;1.63;;
22955;SDS011;40888;48.148;11.526;2023-07-13T13:54:51;3.65;;;1.50;;
22955;SDS011;40888;48.148;11.526;2023-07-13T13:57:21;3.13;;;1.48;;
22955;SDS011;40888;48.148;11.526;2023-07-13T13:59:51;3.13;;;1.45;;
22955;SDS011;40888;48.148;11.526;2023-07-13T14:02:24;3.10;;;1.75;;
22955;SDS011;40888;48.148;11.526;2023-07-13T14:04:54;3.20;;;1.60;;
22955;SDS011;40888;48.148;11.526;2023-07-13T14:07:24;3.65;;;1.50;;
22955;SDS011;40888;48.148;11.526;2023-07-13T14:09:52;2.30;;;1.70;;
22955;SDS011;40888;48.148;11.526;2023-07-13T14:12:19;6.07;;;1.70;;
22955;SDS011;40888;48.148;11.526;2023-07-13T14:14:45;4.28;;;1.80;;
22955;SDS011;40888;48.148;11.526;2023-07-13T14:17:16;2.55;;;1.58;;
22955;SDS011;40888;48.148;11.526;2023-07-13T14:19:50;4.85;;;1.40;;
22955;SDS011;40888;48.148;11.526;2023-07-13T14:22:17;3.75;;;1.75;;
22955;SDS011;40888;48.148;11.526;2023-07-13T14:24:43;3.53;;;1.48;;
22955;SDS011;40888;48.148;11.526;2023-07-13T14:27:10;2.97;;;1.42;;
22955;SDS011;40888;48.148;11.526;2023-07-13T14:29:37;2.55;;;1.48;;
22955;SDS011;40888;48.148;11.526;2023-07-13T14:32:03;2.97;;;1.73;;
22955;SDS011;40888;48.148;11.526;2023-07-13T14:34:30;4.05;;;1.70;;
22955;SDS011;40888;48.148;11.526;2023-07-13T14:36:56;3.55;;;1.63;;
22955;SDS011;40888;48.148;11.526;2023-07-13T14:39:22;3.88;;;1.55;;
22955;SDS011;40888;48.148;11.526;2023-07-13T14:41:49;3.42;;;1.40;;
22955;SDS011;40888;48.148;11.526;2023-07-13T14:44:17;2.22;;;1.55;;
22955;SDS011;40888;48.148;11.526;2023-07-13T14:46:46;3.53;;;1.48;;
22955;SDS011;40888;48.148;11.526;2023-07-13T14:51:41;1.42;;;1.33;;
22955;SDS011;40888;48.148;11.526;2023-07-13T14:54:08;2.92;;;1.58;;
22955;SDS011;40888;48.148;11.526;2023-07-13T14:56:34;3.45;;;1.90;;
22955;SDS011;40888;48.148;11.526;2023-07-13T14:59:00;3.35;;;1.90;;
22955;SDS011;40888;48.148;11.526;2023-07-13T15:01:26;3.90;;;1.42;;
22955;SDS011;40888;48.148;11.526;2023-07-13T15:03:52;3.53;;;1.42;;
22955;SDS011;40888;48.148;11.526;2023-07-13T15:06:18;3.83;;;1.58;;
22955;SDS011;40888;48.148;11.526;2023-07-13T15:08:45;3.40;;;1.75;;
22955;SDS011;40888;48.148;11.526;2023-07-13T15:11:11;4.20;;;1.58;;
22955;SDS011;40888;48.148;11.526;2023-07-13T15:13:38;5.32;;;1.58;;
22955;SDS011;40888;48.148;11.526;2023-07-13T15:16:08;3.63;;;2.17;;
22955;SDS011;40888;48.148;11.526;2023-07-13T15:18:39;3.10;;;1.60;;